Time;durP1;ratioP1;P1;durP2;ratioP2;P2;SDS_P1;SDS_P2;PMS_P1;PMS_P2;Temp;Humidity;BMP_temperature;BMP_pressure;BME280_temperature;BME280_humidity;BME280_pressure;Samples;Min_cycle;Max_cycle;Signal;HPM_P1;HPM_P2
2023/06/12 00:01:56;;;;;;;10.02;9.73;;;;;;;-141.02;100.00;86498.09;5113858;28;20689;-66
2023/06/12 00:04:23;;;;;;;9.77;9.48;;;;;;;-141.02;100.00;86498.09;5113114;28;20193;-55
2023/06/12 00:06:51;;;;;;;9.73;9.43;;;;;;;-141.02;100.00;86498.09;5114068;28;20308;-55
2023/06/12 00:09:18;;;;;;;10.02;9.73;;;;;;;-141.02;100.00;86249.22;5113661;28;20225;-55
2023/06/12 00:11:45;;;;;;;10.00;9.70;;;;;;;-141.02;100.00;86249.22;5113665;28;20232;-55
2023/06/12 00:14:12;;;;;;;10.13;9.82;;;;;;;-141.02;100.00;86249.22;5113911;28;20276;-66
2023/06/12 00:16:39;;;;;;;10.25;9.95;;;;;;;-141.02;100.00;86249.22;5113392;28;20268;-56
2023/06/12 00:19:07;;;;;;;9.90;9.60;;;;;;;-141.02;100.00;86249.22;5113819;28;20272;-55
2023/06/12 00:21:35;;;;;;;10.20;9.90;;;;;;;-141.02;100.00;86249.22;5113685;28;20276;-55
2023/06/12 00:24:04;;;;;;;10.10;9.80;;;;;;;-141.02;100.00;86249.22;5113472;28;20199;-55
2023/06/12 00:26:31;;;;;;;9.55;9.25;;;;;;;-141.02;100.00;86249.22;5113713;28;20197;-55
2023/06/12 00:28:58;;;;;;;9.57;9.27;;;;;;;-141.02;100.00;86249.22;5113613;28;20249;-56
2023/06/12 00:31:25;;;;;;;9.50;9.20;;;;;;;-141.02;100.00;86249.22;5113583;28;20199;-66
2023/06/12 00:33:52;;;;;;;9.45;9.15;;;;;;;-141.02;100.00;86249.22;5113717;28;20193;-64
2023/06/12 00:36:20;;;;;;;9.60;9.30;;;;;;;-141.02;100.00;86498.09;5114273;28;20287;-56
2023/06/12 00:38:47;;;;;;;9.07;8.88;;;;;;;-141.02;100.00;86498.09;5113107;28;20758;-55
2023/06/12 00:41:14;;;;;;;9.00;8.80;;;;;;;-141.02;100.00;86498.09;5113566;28;20284;-55
2023/06/12 00:43:41;;;;;;;8.93;8.73;;;;;;;-141.02;100.00;86498.09;5113066;28;20820;-55
2023/06/12 00:46:09;;;;;;;9.02;8.82;;;;;;;-141.02;100.00;86249.22;5113565;28;20578;-55
2023/06/12 00:48:36;;;;;;;9.23;8.93;;;;;;;-141.02;100.00;86249.22;5113247;28;20272;-55
2023/06/12 00:51:03;;;;;;;9.20;9.00;;;;;;;-141.02;100.00;86249.22;5113264;28;20271;-55
2023/06/12 00:53:33;;;;;;;8.82;8.63;;;;;;;-141.02;100.00;86249.22;5112908;28;20676;-65
2023/06/12 00:56:00;;;;;;;8.93;8.73;;;;;;;-141.02;100.00;86498.09;5113172;28;20213;-55
2023/06/12 00:58:28;;;;;;;8.93;8.73;;;;;;;-141.02;100.00;86498.09;5113098;28;20200;-55
2023/06/12 01:00:56;;;;;;;8.80;8.60;;;;;;;-141.02;100.00;86498.09;5113507;28;20201;-55
2023/06/12 01:03:24;;;;;;;8.55;8.35;;;;;;;-141.02;100.00;86747.00;5112762;28;20197;-55
2023/06/12 01:05:52;;;;;;;9.20;9.00;;;;;;;-141.02;100.00;86747.00;5112708;28;20284;-56
2023/06/12 01:08:27;;;;;;;9.30;9.00;;;;;;;-141.02;100.00;86747.00;5112651;28;20197;-55
2023/06/12 01:10:59;;;;;;;9.05;8.85;;;;;;;-141.02;100.00;86747.00;5112668;28;20241;-55
2023/06/12 01:13:26;;;;;;;8.80;8.60;;;;;;;-141.02;100.00;86995.94;5112878;28;20186;-56
2023/06/12 01:15:53;;;;;;;8.70;8.50;;;;;;;-141.02;100.00;87244.88;5111884;28;20251;-55
2023/06/12 01:18:21;;;;;;;8.73;8.52;;;;;;;-141.02;100.00;87244.88;5112574;28;20284;-55
2023/06/12 01:20:49;;;;;;;8.85;8.65;;;;;;;-141.02;100.00;87244.88;5112493;28;20254;-56
2023/06/12 01:23:32;;;;;;;8.70;8.50;;;;;;;-141.02;100.00;87244.88;5113039;28;20204;-55
2023/06/12 01:26:18;;;;;;;8.93;8.73;;;;;;;-141.02;100.00;87244.88;5112755;28;20649;-55
2023/06/12 01:29:19;;;;;;;8.70;8.50;;;;;;;-141.02;100.00;86995.94;5112397;28;20192;-55
2023/06/12 01:32:07;;;;;;;8.68;8.48;;;;;;;-141.02;100.00;86995.94;5086430;28;20279;-55
2023/06/12 01:34:38;;;;;;;8.90;8.70;;;;;;;-141.02;100.00;87244.88;5112720;28;20189;-55
2023/06/12 01:37:16;;;;;;;8.52;8.32;;;;;;;-141.02;100.00;87244.88;5112324;28;20209;-55
2023/06/12 01:39:55;;;;;;;8.65;8.45;;;;;;;-141.02;100.00;87244.88;5112642;28;20217;-55
2023/06/12 01:42:23;;;;;;;8.48;8.27;;;;;;;-141.02;100.00;87244.88;5112702;28;20602;-55
2023/06/12 01:44:50;;;;;;;8.55;8.35;;;;;;;-141.02;100.00;87244.88;5112356;28;20229;-55
2023/06/12 01:47:19;;;;;;;8.65;8.45;;;;;;;-141.02;100.00;87244.88;5112538;28;20272;-59
2023/06/12 01:49:46;;;;;;;8.60;8.40;;;;;;;-141.02;100.00;87244.88;5112273;28;20204;-66
2023/06/12 01:52:13;;;;;;;8.90;8.70;;;;;;;-141.02;100.00;87493.84;5112410;28;20640;-55
2023/06/12 01:54:40;;;;;;;9.10;8.90;;;;;;;-141.02;100.00;87493.84;5112514;28;20195;-55
2023/06/12 01:57:08;;;;;;;8.98;8.77;;;;;;;-141.02;100.00;87493.84;5112050;28;20231;-59
2023/06/12 01:59:35;;;;;;;9.13;8.93;;;;;;;-141.02;100.00;87493.84;5112445;28;20280;-55
2023/06/12 02:02:02;;;;;;;9.32;9.05;;;;;;;-141.02;100.00;87244.88;5112459;28;20220;-55
2023/06/12 02:04:31;;;;;;;9.50;9.20;;;;;;;-141.02;100.00;87244.88;5112404;28;20197;-65
2023/06/12 02:06:58;;;;;;;9.52;9.23;;;;;;;-141.02;100.00;87244.88;5112409;28;20205;-55
2023/06/12 02:09:25;;;;;;;9.50;9.20;;;;;;;-141.02;100.00;87244.88;5112055;28;20193;-66
2023/06/12 02:11:52;;;;;;;8.90;8.70;;;;;;;-141.02;100.00;87244.88;5112399;28;20193;-65
2023/06/12 02:14:20;;;;;;;9.10;8.90;;;;;;;-141.02;100.00;87493.84;5112225;28;20204;-55
2023/06/12 02:16:47;;;;;;;8.60;8.40;;;;;;;-141.02;100.00;87493.84;5112259;28;20269;-66
2023/06/12 02:19:14;;;;;;;8.50;8.30;;;;;;;-141.02;100.00;87742.81;5112278;28;20200;-55
2023/06/12 02:21:43;;;;;;;8.10;7.90;;;;;;;-141.02;100.00;87991.81;5112473;28;20280;-55
2023/06/12 02:24:10;;;;;;;8.00;7.80;;;;;;;-141.02;100.00;87991.81;5111938;28;20280;-55
2023/06/12 02:26:37;;;;;;;7.50;7.30;;;;;;;-141.02;100.00;88240.81;5111877;28;20193;-55
2023/06/12 02:29:07;;;;;;;7.80;7.60;;;;;;;-141.02;100.00;88489.84;5115755;28;20709;-55
2023/06/12 02:31:34;;;;;;;7.55;7.35;;;;;;;-141.02;100.00;88738.88;5115584;28;20287;-55
2023/06/12 02:34:01;;;;;;;7.80;7.60;;;;;;;-141.02;100.00;88987.97;5115605;28;20277;-65
2023/06/12 02:36:30;;;;;;;7.30;7.10;;;;;;;-141.02;100.00;89237.03;5115726;28;20678;-55
2023/06/12 02:38:58;;;;;;;7.30;7.10;;;;;;;-141.02;100.00;89486.16;5115512;28;20207;-66
2023/06/12 02:41:25;;;;;;;7.15;6.95;;;;;;;-141.02;100.00;89984.41;5115754;28;20624;-55
2023/06/12 02:43:52;;;;;;;7.40;7.20;;;;;;;-141.02;100.00;90482.72;5115500;28;20225;-55
2023/06/12 02:46:19;;;;;;;7.18;6.97;;;;;;;-141.02;100.00;90981.13;5115716;28;20190;-55
2023/06/12 02:48:46;;;;;;;7.10;6.90;;;;;;;-141.02;100.00;91479.63;5115557;28;20197;-66
2023/06/12 02:51:13;;;;;;;7.00;6.80;;;;;;;-141.02;100.00;91978.16;5115220;28;20745;-55
2023/06/12 02:53:40;;;;;;;7.50;7.30;;;;;;;-141.02;100.00;92476.78;5115247;28;20229;-55
2023/06/12 02:56:09;;;;;;;7.60;7.40;;;;;;;-141.02;100.00;92975.47;5115537;28;20315;-55
2023/06/12 02:58:36;;;;;;;7.60;7.40;;;;;;;-141.02;100.00;93224.84;5115157;27;20193;-55
2023/06/12 03:01:04;;;;;;;8.10;7.90;;;;;;;-141.02;100.00;93723.63;5115064;28;20250;-55
2023/06/12 03:03:31;;;;;;;8.10;7.90;;;;;;;-141.02;100.00;94222.50;5115069;28;20296;-55
2023/06/12 03:05:58;;;;;;;7.50;7.30;;;;;;;-141.02;100.00;94970.94;5115155;28;20303;-55
2023/06/12 03:08:25;;;;;;;7.45;7.25;;;;;;;-141.02;100.00;95470.00;5114895;28;20233;-55
2023/06/12 03:10:52;;;;;;;7.30;7.10;;;;;;;-141.02;100.00;95969.13;5114875;28;20189;-55
2023/06/12 03:13:21;;;;;;;7.20;7.00;;;;;;;-141.02;100.00;96717.94;5115388;28;20247;-55
2023/06/12 03:15:49;;;;;;;7.40;7.20;;;;;;;-141.02;100.00;97466.91;5115007;28;20713;-55
2023/06/12 03:18:16;;;;;;;7.50;7.30;;;;;;;-141.02;100.00;97966.31;5115067;28;20292;-65
2023/06/12 03:20:44;;;;;;;7.50;7.30;;;;;;;-141.02;100.00;98216.03;5114715;28;20299;-55
2023/06/12 03:23:11;;;;;;;7.70;7.50;;;;;;;-141.02;100.00;98465.78;5114624;28;20594;-55
2023/06/12 03:25:38;;;;;;;7.60;7.40;;;;;;;-141.02;100.00;98465.78;5114847;28;20232;-60
2023/06/12 03:28:05;;;;;;;8.35;8.15;;;;;;;-141.02;100.00;98715.56;5114869;28;20289;-55
2023/06/12 03:30:33;;;;;;;7.90;7.70;;;;;;;-141.02;100.00;98715.56;5114473;28;20189;-55
2023/06/12 03:33:00;;;;;;;8.10;7.90;;;;;;;-141.02;100.00;98965.34;5114442;28;20232;-55
2023/06/12 03:35:29;;;;;;;8.43;8.23;;;;;;;-141.02;100.00;99215.16;5114383;28;20612;-55
2023/06/12 03:37:56;;;;;;;9.82;9.52;;;;;;;-141.02;100.00;98965.34;5114442;28;20217;-55
2023/06/12 03:40:23;;;;;;;9.13;8.93;;;;;;;-141.02;100.00;98965.34;5113501;28;20644;-55
2023/06/12 03:42:50;;;;;;;9.73;9.43;;;;;;;-141.02;100.00;98965.34;5114590;28;20646;-55
2023/06/12 03:45:17;;;;;;;9.50;9.20;;;;;;;-141.02;100.00;99215.16;5114123;28;20324;-56
2023/06/12 03:47:45;;;;;;;9.52;9.23;;;;;;;-141.02;100.00;99215.16;5114181;28;20244;-55
2023/06/12 03:50:13;;;;;;;8.88;8.68;;;;;;;-141.02;100.00;99215.16;5114086;28;20280;-56
2023/06/12 03:52:40;;;;;;;8.50;8.30;;;;;;;-141.02;100.00;99215.16;5114039;27;20658;-55
2023/06/12 03:55:08;;;;;;;8.90;8.70;;;;;;;-141.02;100.00;99215.16;5114399;28;20221;-55
2023/06/12 03:57:36;;;;;;;9.45;9.15;;;;;;;-141.02;100.00;98965.34;5113888;28;20753;-55
2023/06/12 04:00:04;;;;;;;9.20;9.00;;;;;;;-141.02;100.00;99215.16;5113920;27;20636;-55
2023/06/12 04:02:32;;;;;;;9.63;9.32;;;;;;;-141.02;100.00;98965.34;5114582;28;20201;-55
2023/06/12 04:05:00;;;;;;;9.77;9.48;;;;;;;-141.02;100.00;98965.34;5113796;28;20201;-55
2023/06/12 04:07:28;;;;;;;9.63;9.32;;;;;;;-141.02;100.00;98965.34;5114068;28;20276;-55
2023/06/12 04:09:55;;;;;;;10.02;9.73;;;;;;;-141.02;100.00;98965.34;5113726;28;20189;-55
2023/06/12 04:12:22;;;;;;;11.20;10.90;;;;;;;-141.02;100.00;98715.56;5113855;28;20193;-55
2023/06/12 04:14:50;;;;;;;11.13;10.82;;;;;;;-141.02;100.00;98715.56;5113569;28;20242;-55
2023/06/12 04:17:17;;;;;;;11.50;11.20;;;;;;;-141.02;100.00;98465.78;5113494;28;20228;-55
2023/06/12 04:19:45;;;;;;;12.63;12.23;;;;;;;-141.02;100.00;98465.78;5113751;28;20197;-55
2023/06/12 04:22:15;;;;;;;12.68;12.27;;;;;;;-141.02;100.00;97966.31;5113784;28;20197;-56
2023/06/12 04:24:42;;;;;;;13.50;13.10;;;;;;;-141.02;100.00;97966.31;5113665;28;20193;-55
2023/06/12 04:27:09;;;;;;;14.45;13.95;;;;;;;-141.02;100.00;97217.22;5113982;28;20224;-55
2023/06/12 04:29:37;;;;;;;15.18;14.68;;;;;;;-141.02;100.00;96468.31;5113665;28;20655;-56
2023/06/12 04:32:06;;;;;;;15.93;15.32;;;;;;;-141.02;100.00;95719.53;5114247;28;20200;-55
2023/06/12 04:34:39;;;;;;;15.23;14.63;;;;;;;-141.02;100.00;94970.94;5113588;28;20228;-56
2023/06/12 04:37:08;;;;;;;15.45;14.85;;;;;;;-141.02;100.00;95220.47;5113243;28;20252;-55
2023/06/12 04:39:38;;;;;;;17.08;16.38;;;;;;;-141.02;100.00;94970.94;5113509;28;20193;-56
2023/06/12 04:42:07;;;;;;;17.65;16.85;;;;;;;-141.02;91.51;93474.22;5113071;28;20579;-56
2023/06/12 04:44:34;;;;;;;17.60;16.80;;;;;;;-141.02;89.01;92726.13;5112895;28;20237;-55
2023/06/12 04:47:04;;;;;;;16.38;15.68;;;;;;;-141.02;88.91;92726.13;5113307;28;20189;-56
2023/06/12 04:49:33;;;;;;;16.67;15.88;;;;;;;-141.02;86.04;91728.88;5112917;28;20281;-56
2023/06/12 04:52:02;;;;;;;16.48;15.73;;;;;;;-141.02;86.50;89984.41;5113207;28;20197;-56
2023/06/12 04:54:35;;;;;;;16.27;15.57;;;;;;;-141.02;91.22;89984.41;5113187;28;20276;-56
2023/06/12 04:57:07;;;;;;;16.40;15.70;;;;;;;-141.02;96.42;89735.28;5112755;28;20769;-56
2023/06/12 04:59:38;;;;;;;15.65;14.95;;;;;;;-141.02;96.08;90233.56;5112901;28;20573;-55
2023/06/12 05:02:07;;;;;;;15.75;15.05;;;;;;;-141.02;91.62;89984.41;5113312;28;20189;-56
2023/06/12 05:04:35;;;;;;;15.73;15.02;;;;;;;-141.02;91.67;89735.28;5112761;28;20238;-56
2023/06/12 05:07:04;;;;;;;15.82;15.13;;;;;;;-141.02;93.59;89486.16;5113038;28;20201;-56
2023/06/12 05:09:32;;;;;;;15.43;14.82;;;;;;;-141.02;95.53;89486.16;5112933;28;20253;-65
2023/06/12 05:12:00;;;;;;;15.52;14.82;;;;;;;-141.02;97.97;89735.28;5112715;28;20197;-67
2023/06/12 05:14:29;;;;;;;15.60;14.90;;;;;;;-141.02;95.83;88987.97;5112616;28;20569;-56
2023/06/12 05:16:58;;;;;;;14.45;13.95;;;;;;;-141.02;100.00;88738.88;5112742;28;20224;-55
2023/06/12 05:19:25;;;;;;;14.52;14.02;;;;;;;-141.02;100.00;88987.97;5112887;28;20201;-65
2023/06/12 05:21:53;;;;;;;15.13;14.52;;;;;;;-141.02;100.00;89735.28;5112547;28;20200;-56
2023/06/12 05:24:20;;;;;;;15.27;14.68;;;;;;;-141.02;100.00;88987.97;5112761;28;20226;-55
2023/06/12 05:26:47;;;;;;;14.85;14.25;;;;;;;-141.02;100.00;89735.28;5112383;28;20203;-66
2023/06/12 05:29:14;;;;;;;14.38;13.88;;;;;;;-141.02;100.00;89735.28;5113358;28;20201;-55
2023/06/12 05:31:42;;;;;;;14.90;14.30;;;;;;;-141.02;100.00;89735.28;5112674;28;20224;-55
2023/06/12 05:34:09;;;;;;;15.30;14.70;;;;;;;-141.02;100.00;89735.28;5112772;28;20232;-55
2023/06/12 05:36:36;;;;;;;15.10;14.50;;;;;;;-141.02;100.00;89486.16;5112622;28;20279;-55
2023/06/12 05:39:04;;;;;;;14.88;14.27;;;;;;;-141.02;100.00;89735.28;5112326;28;20193;-55
2023/06/12 05:41:31;;;;;;;15.32;14.73;;;;;;;-141.02;100.00;89237.03;5112660;28;20197;-56
2023/06/12 05:43:58;;;;;;;15.60;15.00;;;;;;;-141.02;100.00;89486.16;5112328;28;20280;-55
2023/06/12 05:46:25;;;;;;;15.85;15.25;;;;;;;-141.02;100.00;89486.16;5112387;28;20280;-55
2023/06/12 05:48:57;;;;;;;15.77;15.18;;;;;;;-141.02;100.00;89735.28;5112493;28;20193;-55
2023/06/12 05:51:24;;;;;;;15.65;15.05;;;;;;;-141.02;100.00;89486.16;5112582;28;20192;-56
2023/06/12 05:53:51;;;;;;;15.68;15.07;;;;;;;-141.02;100.00;89984.41;5112501;28;20193;-55
2023/06/12 05:56:18;;;;;;;15.75;15.15;;;;;;;-141.02;100.00;89735.28;5112052;28;20284;-56
2023/06/12 05:58:45;;;;;;;15.60;14.90;;;;;;;-141.02;100.00;88738.88;5112239;28;20199;-56
2023/06/12 06:01:16;;;;;;;15.30;14.70;;;;;;;-141.02;100.00;89486.16;5112101;28;20582;-56
2023/06/12 06:03:45;;;;;;;15.50;14.90;;;;;;;-141.02;100.00;89237.03;5116005;28;20189;-56
2023/06/12 06:06:14;;;;;;;14.85;14.35;;;;;;;-141.02;100.00;89984.41;5116409;27;20193;-56
2023/06/12 06:08:41;;;;;;;15.40;14.80;;;;;;;-141.02;100.00;89984.41;5116393;28;20197;-57
2023/06/12 06:11:08;;;;;;;15.82;15.23;;;;;;;-141.02;100.00;89984.41;5116038;28;20671;-56
2023/06/12 06:13:35;;;;;;;16.05;15.45;;;;;;;-141.02;100.00;89984.41;5116016;28;20289;-56
2023/06/12 06:16:03;;;;;;;16.00;15.40;;;;;;;-141.02;100.00;90731.94;5115960;28;20235;-55
2023/06/12 06:18:30;;;;;;;16.48;15.77;;;;;;;-141.02;100.00;90482.72;5116127;28;20228;-56
2023/06/12 06:20:57;;;;;;;16.42;15.73;;;;;;;-141.02;100.00;90482.72;5115884;28;20284;-55
2023/06/12 06:23:25;;;;;;;16.30;15.60;;;;;;;-141.02;100.00;90731.94;5116438;28;20238;-56
2023/06/12 06:25:52;;;;;;;16.80;16.10;;;;;;;-141.02;100.00;90731.94;5116098;28;20212;-55
2023/06/12 06:28:19;;;;;;;16.52;15.82;;;;;;;-141.02;100.00;90731.94;5116010;28;20250;-56
2023/06/12 06:30:46;;;;;;;16.75;16.05;;;;;;;-141.02;100.00;90731.94;5115936;28;20272;-56
2023/06/12 06:33:13;;;;;;;16.65;15.95;;;;;;;-141.02;100.00;90981.13;5115951;28;20277;-56
2023/06/12 06:35:40;;;;;;;15.63;15.02;;;;;;;-141.02;100.00;90981.13;5115523;28;20728;-56
2023/06/12 06:38:07;;;;;;;16.23;15.57;;;;;;;-141.02;100.00;90981.13;5115762;28;20316;-55
2023/06/12 06:40:36;;;;;;;16.42;15.75;;;;;;;-141.02;100.00;90482.72;5116336;28;20225;-55
2023/06/12 06:43:03;;;;;;;16.85;16.15;;;;;;;-141.02;100.00;90482.72;5115738;28;20204;-56
2023/06/12 06:45:30;;;;;;;16.33;15.63;;;;;;;-141.02;100.00;90731.94;5115454;28;20235;-56
2023/06/12 06:47:58;;;;;;;20.60;19.10;;;;;;;-141.02;100.00;90981.13;5115858;28;20279;-55
2023/06/12 06:50:25;;;;;;;16.10;15.50;;;;;;;-141.02;100.00;91479.63;5115640;28;20254;-55
2023/06/12 06:52:52;;;;;;;17.00;16.30;;;;;;;-141.02;100.00;91230.38;5115278;28;20284;-55
2023/06/12 06:55:19;;;;;;;17.35;16.55;;;;;;;-141.02;100.00;91728.88;5115460;28;20288;-67
2023/06/12 06:57:50;;;;;;;17.58;16.77;;;;;;;-141.02;97.16;91230.38;5115377;28;20268;-55
2023/06/12 07:00:20;;;;;;;17.80;17.00;;;;;;;-141.02;98.73;90981.13;5115388;28;20193;-56
2023/06/12 07:02:47;;;;;;;17.75;16.85;;;;;;;-141.02;98.43;91479.63;5115405;27;20246;-56
2023/06/12 07:05:15;;;;;;;17.20;16.40;;;;;;;-141.02;94.87;91479.63;5114993;28;20193;-56
2023/06/12 07:07:42;;;;;;;18.13;17.15;;;;;;;-141.02;93.98;91728.88;5115303;28;20604;-56
2023/06/12 07:10:10;;;;;;;17.42;16.52;;;;;;;-141.02;96.55;91728.88;5114912;28;20574;-67
2023/06/12 07:12:37;;;;;;;18.05;17.15;;;;;;;-141.02;93.31;91230.38;5114781;28;20728;-67
2023/06/12 07:15:07;;;;;;;18.15;17.25;;;;;;;-141.02;95.04;91230.38;5114815;28;20637;-55
2023/06/12 07:17:34;;;;;;;17.92;17.02;;;;;;;-141.02;92.63;90981.13;5114918;28;20767;-55
2023/06/12 07:20:01;;;;;;;17.80;16.90;;;;;;;-141.02;91.81;90233.56;5114940;28;20197;-55
2023/06/12 07:22:28;;;;;;;18.88;17.98;;;;;;;-141.02;93.07;90981.13;5115016;28;20254;-56
2023/06/12 07:24:55;;;;;;;18.27;17.48;;;;;;;-141.02;92.22;90233.56;5114951;28;20276;-56
2023/06/12 07:27:23;;;;;;;18.92;18.02;;;;;;;-141.02;91.95;90482.72;5114577;28;20236;-56
2023/06/12 07:29:49;;;;;;;18.35;17.55;;;;;;;-141.02;91.13;90981.13;5114809;28;20197;-67
2023/06/12 07:32:18;;;;;;;18.27;17.48;;;;;;;-141.02;92.39;91479.63;5114482;28;20753;-56
2023/06/12 07:34:45;;;;;;;19.08;18.17;;;;;;;-141.02;91.59;90981.13;5114760;28;20275;-56
2023/06/12 07:37:12;;;;;;;19.27;18.38;;;;;;;-141.02;92.01;90981.13;5114533;28;20225;-55
2023/06/12 07:39:39;;;;;;;19.35;18.45;;;;;;;-141.02;92.03;90981.13;5114298;28;20554;-56
2023/06/12 07:42:07;;;;;;;18.60;17.70;;;;;;;-141.02;89.44;90731.94;5114310;28;20556;-56
2023/06/12 07:44:34;;;;;;;18.95;17.95;;;;;;;-141.02;88.17;90233.56;5114375;28;20225;-56
2023/06/12 07:47:01;;;;;;;19.20;18.25;;;;;;;-141.02;87.95;90981.13;5114508;28;20271;-56
2023/06/12 07:49:29;;;;;;;19.50;18.50;;;;;;;-141.02;86.80;90482.72;5114433;28;20194;-56
2023/06/12 07:51:56;;;;;;;19.65;18.65;;;;;;;-141.02;87.75;90233.56;5114392;28;20229;-56
2023/06/12 07:54:23;;;;;;;19.23;18.33;;;;;;;-141.02;89.36;90482.72;5114376;28;20272;-56
2023/06/12 07:56:51;;;;;;;19.30;18.30;;;;;;;-141.02;87.45;89735.28;5114311;28;20272;-56
2023/06/12 07:59:19;;;;;;;19.48;18.48;;;;;;;-141.02;88.61;89735.28;5114265;28;20208;-55
2023/06/12 08:01:46;;;;;;;18.88;17.98;;;;;;;-141.02;86.65;89735.28;5114145;28;20208;-56
2023/06/12 08:04:13;;;;;;;19.38;18.38;;;;;;;-141.02;86.52;90233.56;5114132;28;20200;-56
2023/06/12 08:06:42;;;;;;;19.83;18.83;;;;;;;-141.02;83.98;90233.56;5113817;28;20199;-65
2023/06/12 08:09:10;;;;;;;19.90;18.90;;;;;;;-141.02;83.04;89984.41;5114089;28;20200;-56
2023/06/12 08:11:37;;;;;;;19.45;18.35;;;;;;;-141.02;82.83;89735.28;5113800;28;20689;-66
2023/06/12 08:14:04;;;;;;;20.58;19.48;;;;;;;-141.02;83.57;89984.41;5113729;28;20250;-56
2023/06/12 08:16:31;;;;;;;20.90;19.80;;;;;;;-141.02;77.87;89237.03;5113883;28;20272;-67
2023/06/12 08:18:58;;;;;;;20.70;19.60;;;;;;;-141.02;78.13;89735.28;5113810;28;20225;-66
2023/06/12 08:21:26;;;;;;;21.75;20.55;;;;;;;-141.02;73.75;89237.03;5113487;28;20685;-56
2023/06/12 08:23:57;;;;;;;22.25;20.95;;;;;;;-141.02;71.54;87991.81;5113835;28;20196;-56
2023/06/12 08:26:24;;;;;;;21.73;20.42;;;;;;;-141.02;72.07;88489.84;5113246;28;20200;-56
2023/06/12 08:28:51;;;;;;;23.73;22.33;;;;;;;-141.02;73.20;87493.84;5113401;28;20196;-56
2023/06/12 08:31:19;;;;;;;23.40;22.10;;;;;;;-141.02;78.71;87244.88;5113902;28;20194;-65
2023/06/12 08:33:46;;;;;;;21.35;20.15;;;;;;;-141.02;73.99;86995.94;5113587;28;20193;-61
2023/06/12 08:36:13;;;;;;;22.63;21.35;;;;;;;-141.02;74.95;87244.88;5113575;28;20276;-67
2023/06/12 08:38:40;;;;;;;23.77;22.48;;;;;;;-141.02;74.83;87742.81;5113422;28;20316;-56
2023/06/12 08:41:08;;;;;;;23.98;22.67;;;;;;;-141.02;74.66;87493.84;5113487;28;20224;-56
2023/06/12 08:43:36;;;;;;;23.08;21.77;;;;;;;-141.02;73.13;86995.94;5113440;28;20231;-56
2023/06/12 08:46:04;;;;;;;22.95;21.65;;;;;;;-141.02;73.53;86000.34;5113182;28;20323;-56
2023/06/12 08:48:33;;;;;;;21.95;20.75;;;;;;;-141.02;77.70;86995.94;5113340;28;20204;-56
2023/06/12 08:51:02;;;;;;;22.33;21.05;;;;;;;-141.02;74.49;85253.84;5114059;28;20601;-60
2023/06/12 08:53:30;;;;;;;22.98;21.67;;;;;;;-141.02;74.52;85502.66;5112948;28;20697;-56
2023/06/12 08:55:58;;;;;;;22.25;20.95;;;;;;;-141.02;73.39;86000.34;5112914;28;20277;-56
2023/06/12 08:58:27;;;;;;;20.55;19.45;;;;;;;-141.02;75.67;85751.50;5113122;28;20228;-56
2023/06/12 09:00:54;;;;;;;22.38;21.17;;;;;;;-141.02;74.06;86249.22;5113140;28;20225;-57
2023/06/12 09:03:21;;;;;;;22.77;21.48;;;;;;;-141.02;72.48;87244.88;5113041;28;20189;-56
2023/06/12 09:05:48;;;;;;;21.55;20.35;;;;;;;-141.02;74.13;87991.81;5113105;28;20235;-67
2023/06/12 09:08:16;;;;;;;20.75;19.55;;;;;;;-141.02;70.56;87493.84;5113012;28;20280;-56
2023/06/12 09:10:43;;;;;;;21.55;20.35;;;;;;;-141.02;72.64;86498.09;5112965;28;20199;-56
2023/06/12 09:13:11;;;;;;;20.48;19.38;;;;;;;-141.02;74.97;86747.00;5112953;28;20245;-67
2023/06/12 09:15:50;;;;;;;21.25;20.15;;;;;;;-141.02;73.95;84507.50;5112583;28;20280;-55
2023/06/12 09:18:19;;;;;;;20.30;19.20;;;;;;;-141.02;79.01;86000.34;5112903;28;20262;-56
2023/06/12 09:20:49;;;;;;;20.73;19.63;;;;;;;-141.02;75.49;86000.34;5112533;28;20236;-56
2023/06/12 09:23:17;;;;;;;19.75;18.65;;;;;;;-141.02;77.07;86249.22;5112562;28;20284;-56
2023/06/12 09:25:44;;;;;;;19.67;18.60;;;;;;;-141.02;74.78;86498.09;5112751;28;20608;-56
2023/06/12 09:28:11;;;;;;;19.15;18.15;;;;;;;-141.02;76.78;87742.81;5112521;28;20192;-68
2023/06/12 09:30:44;;;;;;;20.77;19.67;;;;;;;-141.02;78.69;87742.81;5112404;28;20204;-56
2023/06/12 09:33:11;;;;;;;20.48;19.38;;;;;;;-141.02;75.30;88489.84;5112434;28;20280;-67
2023/06/12 09:35:51;;;;;;;21.30;20.20;;;;;;;-141.02;72.54;87742.81;5112754;28;20250;-55
2023/06/12 09:38:18;;;;;;;21.35;20.15;;;;;;;-141.02;73.69;87742.81;5115672;28;20228;-56
2023/06/12 09:40:54;;;;;;;21.48;20.27;;;;;;;-141.02;71.16;86747.00;5116925;28;20315;-56
2023/06/12 09:43:21;;;;;;;21.42;20.23;;;;;;;-141.02;74.08;87493.84;5116956;27;20268;-56
2023/06/12 09:45:53;;;;;;;21.60;20.40;;;;;;;-141.02;72.06;87244.88;5116444;28;20679;-56
2023/06/12 09:48:20;;;;;;;21.88;20.60;;;;;;;-141.02;70.45;84507.50;5116835;28;20276;-66
2023/06/12 09:50:47;;;;;;;22.05;20.85;;;;;;;-141.02;72.24;85502.66;5116806;28;20192;-67
2023/06/12 09:53:20;;;;;;;24.20;22.90;;;;;;;-141.02;69.64;84756.25;5116701;28;20651;-56
2023/06/12 09:55:48;;;;;;;21.92;20.73;;;;;;;-141.02;70.13;85502.66;5116772;28;20212;-56
2023/06/12 09:58:15;;;;;;;20.63;19.48;;;;;;;-141.02;69.00;85253.84;5116173;28;20716;-56
2023/06/12 10:00:43;;;;;;;22.00;20.70;;;;;;;-141.02;66.39;83263.97;5116567;28;20189;-56
2023/06/12 10:03:15;;;;;;;22.35;21.05;;;;;;;-141.02;68.84;84010.03;5116519;28;20324;-56
2023/06/12 10:05:48;;;;;;;22.23;21.02;;;;;;;-141.02;69.41;83015.31;5116611;28;20581;-63
2023/06/12 10:08:16;;;;;;;22.65;21.35;;;;;;;-141.02;68.80;82269.47;5116412;28;20267;-56
2023/06/12 10:10:44;;;;;;;22.88;21.58;;;;;;;-141.02;71.98;83015.31;5116452;28;20231;-56
2023/06/12 10:13:12;;;;;;;22.50;21.23;;;;;;;-141.02;75.42;82518.06;5116357;28;20250;-67
2023/06/12 10:15:40;;;;;;;22.35;21.15;;;;;;;-141.02;78.22;81523.75;5116008;28;20306;-56
2023/06/12 10:18:08;;;;;;;19.92;18.92;;;;;;;-141.02;82.29;81523.75;5116204;28;20264;-56
2023/06/12 10:20:38;;;;;;;22.42;21.13;;;;;;;-141.02;82.23;80778.25;5115919;28;20189;-56
2023/06/12 10:23:06;;;;;;;20.13;19.02;;;;;;;-141.02;89.36;81275.25;5116215;28;20272;-56
2023/06/12 10:25:34;;;;;;;18.75;17.85;;;;;;;-141.02;99.20;83512.63;5115767;28;20734;-56
2023/06/12 10:28:02;;;;;;;18.60;17.70;;;;;;;-141.02;99.88;82518.06;5115767;28;20232;-56
2023/06/12 10:30:29;;;;;;;18.83;17.92;;;;;;;-141.02;100.00;81275.25;5116387;28;20585;-56
2023/06/12 10:33:13;;;;;;;23.35;22.05;;;;;;;-141.02;100.00;81772.31;5116005;28;20228;-58
2023/06/12 10:35:42;;;;;;;28.15;26.65;;;;;;;-141.02;100.00;82269.47;5115919;28;20246;-58
2023/06/12 10:38:12;;;;;;;27.10;25.60;;;;;;;-141.02;100.00;83761.31;5115820;27;20221;-57
2023/06/12 10:40:41;;;;;;;27.70;26.10;;;;;;;-141.02;100.00;85005.03;5115830;28;20192;-57
2023/06/12 10:43:08;;;;;;;27.05;25.45;;;;;;;-141.02;100.00;86498.09;5115535;28;20190;-57
2023/06/12 10:45:36;;;;;;;27.50;25.90;;;;;;;-141.02;100.00;88489.84;5115252;28;20224;-56
2023/06/12 10:48:17;;;;;;;28.73;27.02;;;;;;;-141.02;100.00;90731.94;5115276;28;20196;-56
2023/06/12 10:50:48;;;;;;;25.25;23.85;;;;;;;-141.02;100.00;91728.88;5115714;28;20611;-56
2023/06/12 10:53:17;;;;;;;22.67;21.48;;;;;;;-141.02;100.00;92476.78;5115610;28;20181;-55
2023/06/12 10:55:44;;;;;;;23.45;22.15;;;;;;;-141.02;100.00;93224.84;5115218;28;20243;-66
2023/06/12 10:58:13;;;;;;;23.58;22.27;;;;;;;-141.02;100.00;93973.06;5115142;28;20220;-55
2023/06/12 11:00:45;;;;;;;24.83;23.33;;;;;;;-141.02;100.00;93723.63;5115484;28;20345;-55
2023/06/12 11:03:13;;;;;;;29.52;27.63;;;;;;;-141.02;100.00;91230.38;5115405;28;20200;-55
2023/06/12 11:05:48;;;;;;;26.75;25.15;;;;;;;-141.02;100.00;91978.16;5115341;28;20247;-71
2023/06/12 11:08:15;;;;;;;27.25;25.65;;;;;;;-141.02;100.00;90482.72;5115305;28;20184;-54